createdAt,value
2016-05-12T00:00:43.261Z,994.85
2016-05-12T00:01:43.060Z,994.86
2016-05-12T00:02:43.016Z,994.86
2016-05-12T00:03:43.081Z,994.85
2016-05-12T00:04:42.989Z,994.84
2016-05-12T00:05:42.961Z,994.82
2016-05-12T00:06:42.963Z,994.82
2016-05-12T00:07:42.951Z,994.81
2016-05-12T00:08:42.938Z,994.83
2016-05-12T00:09:42.893Z,994.8
2016-05-12T00:10:43.131Z,994.83
2016-05-12T00:11:42.868Z,994.82
2016-05-12T00:12:42.840Z,994.84
2016-05-12T00:13:42.827Z,994.78
2016-05-12T00:14:42.798Z,994.78
2016-05-12T00:15:42.785Z,994.76
2016-05-12T00:16:42.771Z,994.78
2016-05-12T00:17:42.743Z,994.8
2016-05-12T00:18:42.731Z,994.77
2016-05-12T00:19:42.702Z,994.79
2016-05-12T00:20:42.689Z,994.8
2016-05-12T00:21:42.676Z,994.76
2016-05-12T00:22:42.787Z,994.74
2016-05-12T00:23:42.682Z,994.75
2016-05-12T00:24:42.607Z,994.73
2016-05-12T00:25:42.578Z,994.73
2016-05-12T00:26:42.564Z,994.71
2016-05-12T00:27:42.755Z,994.75
2016-05-12T00:28:42.788Z,994.71
2016-05-12T00:29:42.494Z,994.71
2016-05-12T00:30:42.481Z,994.71
2016-05-12T00:31:42.516Z,994.67
2016-05-12T00:32:42.456Z,994.71
2016-05-12T00:33:42.427Z,994.7
2016-05-12T00:34:42.414Z,994.66
2016-05-12T00:35:42.386Z,994.66
2016-05-12T00:36:42.388Z,994.66
2016-05-12T00:37:42.360Z,994.63
2016-05-12T00:38:42.331Z,994.61
2016-05-12T00:39:42.350Z,994.59
2016-05-12T00:40:42.508Z,994.62
2016-05-12T00:41:42.293Z,994.56
2016-05-12T00:42:42.263Z,994.56
2016-05-12T00:43:42.298Z,994.55
2016-05-12T00:44:42.206Z,994.5
2016-05-12T00:45:42.193Z,994.5
2016-05-12T00:46:42.166Z,994.5
2016-05-12T00:47:42.184Z,994.46
2016-05-12T00:48:42.140Z,994.51
2016-05-12T00:49:42.642Z,994.46
2016-05-12T00:50:42.098Z,994.44
2016-05-12T00:51:42.084Z,994.47
2016-05-12T00:52:42.431Z,994.45
2016-05-12T00:53:42.028Z,994.44
2016-05-12T00:54:42.015Z,994.44
2016-05-12T00:55:42.033Z,994.42
2016-05-12T00:56:41.989Z,994.44
2016-05-12T00:57:41.976Z,994.44
2016-05-12T00:58:41.948Z,994.45
2016-05-12T00:59:42.153Z,994.47
2016-05-12T01:00:42.124Z,994.48
2016-05-12T01:01:41.878Z,994.44
2016-05-12T01:02:41.865Z,994.46
2016-05-12T01:03:41.852Z,994.44
2016-05-12T01:04:41.807Z,994.44
2016-05-12T01:05:41.857Z,994.44
2016-05-12T01:06:42.110Z,994.43
2016-05-12T01:07:41.800Z,994.42
2016-05-12T01:08:41.772Z,994.41
2016-05-12T01:09:41.805Z,994.39
2016-05-12T01:10:41.839Z,994.39
2016-05-12T01:11:41.763Z,994.42
2016-05-12T01:12:41.735Z,994.42
2016-05-12T01:13:41.707Z,994.4
2016-05-12T01:14:41.647Z,994.4
2016-05-12T01:15:41.603Z,994.39
2016-05-12T01:16:41.590Z,994.41
2016-05-12T01:17:41.560Z,994.4
2016-05-12T01:18:41.563Z,994.38
2016-05-12T01:19:41.535Z,994.42
2016-05-12T01:20:41.506Z,994.4
2016-05-12T01:21:41.479Z,994.43
2016-05-12T01:22:41.465Z,994.38
2016-05-12T01:23:41.452Z,994.43
2016-05-12T01:24:42.143Z,994.4
2016-05-12T01:25:41.411Z,994.39
2016-05-12T01:26:41.382Z,994.36
2016-05-12T01:27:41.384Z,994.39
2016-05-12T01:28:41.340Z,994.37
2016-05-12T01:29:41.312Z,994.4
2016-05-12T01:30:41.300Z,994.35
2016-05-12T01:31:42.098Z,994.37
2016-05-12T01:32:41.273Z,994.37
2016-05-12T01:33:41.244Z,994.39
2016-05-12T01:34:41.231Z,994.41
2016-05-12T01:35:41.203Z,994.4
2016-05-12T01:36:41.566Z,994.4
2016-05-12T01:37:41.272Z,994.41
2016-05-12T01:38:41.149Z,994.39
2016-05-12T01:39:41.136Z,994.4
2016-05-12T01:40:41.107Z,994.39
2016-05-12T01:41:41.392Z,994.38
2016-05-12T01:42:41.066Z,994.38
2016-05-12T01:43:41.052Z,994.39
2016-05-12T01:44:41.024Z,994.4
2016-05-12T01:45:40.996Z,994.43
2016-05-12T01:46:41.014Z,994.43
2016-05-12T01:47:40.985Z,994.41
2016-05-12T01:48:40.973Z,994.42
2016-05-12T01:49:40.960Z,994.38
2016-05-12T01:50:40.931Z,994.4
2016-05-12T01:51:40.887Z,994.38
2016-05-12T01:52:40.874Z,994.4
2016-05-12T01:53:40.845Z,994.4
2016-05-12T01:54:40.832Z,994.41
2016-05-12T01:55:41.351Z,994.39
2016-05-12T01:56:40.776Z,994.34
2016-05-12T01:57:40.778Z,994.33
2016-05-12T01:58:40.750Z,994.35
2016-05-12T01:59:40.737Z,994.35
2016-05-12T02:00:40.880Z,994.31
2016-05-12T02:01:40.678Z,994.29
2016-05-12T02:02:40.666Z,994.31
2016-05-12T02:03:40.935Z,994.31
2016-05-12T02:04:40.625Z,994.31
2016-05-12T02:05:40.596Z,994.28
2016-05-12T02:06:40.583Z,994.26
2016-05-12T02:07:40.555Z,994.27
2016-05-12T02:08:40.558Z,994.25
2016-05-12T02:09:40.575Z,994.24
2016-05-12T02:10:40.907Z,994.24
2016-05-12T02:11:40.472Z,994.24
2016-05-12T02:12:40.474Z,994.24
2016-05-12T02:13:40.446Z,994.23
2016-05-12T02:14:40.418Z,994.23
2016-05-12T02:15:40.420Z,994.25
2016-05-12T02:16:40.392Z,994.26
2016-05-12T02:17:40.347Z,994.26
2016-05-12T02:18:40.334Z,994.28
2016-05-12T02:19:40.416Z,994.23
2016-05-12T02:20:40.309Z,994.26
2016-05-12T02:21:40.280Z,994.23
2016-05-12T02:22:40.251Z,994.25
2016-05-12T02:23:40.238Z,994.2
2016-05-12T02:24:40.226Z,994.24
2016-05-12T02:25:40.229Z,994.22
2016-05-12T02:26:40.184Z,994.19
2016-05-12T02:27:40.171Z,994.16
2016-05-12T02:28:40.501Z,994.18
2016-05-12T02:29:40.129Z,994.15
2016-05-12T02:30:40.117Z,994.15
2016-05-12T02:31:40.073Z,994.13
2016-05-12T02:32:40.060Z,994.15
2016-05-12T02:33:40.031Z,994.16
2016-05-12T02:34:40.033Z,994.15
2016-05-12T02:35:40.021Z,994.13
2016-05-12T02:36:39.992Z,994.09
2016-05-12T02:37:39.963Z,994.1
2016-05-12T02:38:39.936Z,994.12
2016-05-12T02:39:39.938Z,994.14
2016-05-12T02:40:39.909Z,994.14
2016-05-12T02:41:39.897Z,994.08
2016-05-12T02:42:39.868Z,994.05
2016-05-12T02:43:39.839Z,994.04
2016-05-12T02:44:39.810Z,994.02
2016-05-12T02:45:39.797Z,994.01
2016-05-12T02:46:39.832Z,993.99
2016-05-12T02:47:39.757Z,993.95
2016-05-12T02:48:39.837Z,993.97
2016-05-12T02:49:39.715Z,993.94
2016-05-12T02:50:39.686Z,993.93
2016-05-12T02:51:39.674Z,993.9
2016-05-12T02:52:39.660Z,993.89
2016-05-12T02:53:40.194Z,993.9
2016-05-12T02:54:39.634Z,993.87
2016-05-12T02:55:39.606Z,993.88
2016-05-12T02:56:39.576Z,993.87
2016-05-12T02:57:39.548Z,993.83
2016-05-12T02:58:39.537Z,993.82
2016-05-12T02:59:39.867Z,993.82
2016-05-12T03:00:39.588Z,993.81
2016-05-12T03:01:39.481Z,993.76
2016-05-12T03:02:39.672Z,993.78
2016-05-12T03:03:39.424Z,993.78
2016-05-12T03:04:39.412Z,993.76
2016-05-12T03:05:39.383Z,993.71
2016-05-12T03:06:39.354Z,993.73
2016-05-12T03:07:39.356Z,993.71
2016-05-12T03:08:39.328Z,993.71
2016-05-12T03:09:39.316Z,993.7
2016-05-12T03:10:39.397Z,993.72
2016-05-12T03:11:39.414Z,993.72
2016-05-12T03:12:39.292Z,993.64
2016-05-12T03:13:39.248Z,993.65
2016-05-12T03:14:39.219Z,993.67
2016-05-12T03:15:39.191Z,993.67
2016-05-12T03:16:39.271Z,993.64
2016-05-12T03:17:39.338Z,993.66
2016-05-12T03:18:39.136Z,993.65
2016-05-12T03:19:39.124Z,993.64
2016-05-12T03:20:39.080Z,993.62
2016-05-12T03:21:39.223Z,993.6
2016-05-12T03:22:39.037Z,993.6
2016-05-12T03:23:39.024Z,993.66
2016-05-12T03:24:38.996Z,993.64
2016-05-12T03:25:39.093Z,993.62
2016-05-12T03:26:38.970Z,993.62
2016-05-12T03:27:38.942Z,993.62
2016-05-12T03:28:38.929Z,993.59
2016-05-12T03:29:38.915Z,993.63
2016-05-12T03:30:38.934Z,993.67
2016-05-12T03:31:38.859Z,993.63
2016-05-12T03:32:38.831Z,993.65
2016-05-12T03:33:39.317Z,993.61
2016-05-12T03:34:38.804Z,993.62
2016-05-12T03:35:38.775Z,993.63
2016-05-12T03:36:38.747Z,993.63
2016-05-12T03:37:38.734Z,993.64
2016-05-12T03:38:38.706Z,993.62
2016-05-12T03:39:38.693Z,993.64
2016-05-12T03:40:38.680Z,993.65
2016-05-12T03:41:38.666Z,993.64
2016-05-12T03:42:38.638Z,993.62
2016-05-12T03:43:38.766Z,993.64
2016-05-12T03:44:38.597Z,993.65
2016-05-12T03:45:38.568Z,993.66
2016-05-12T03:46:38.602Z,993.67
2016-05-12T03:47:38.543Z,993.65
2016-05-12T03:48:38.514Z,993.66
2016-05-12T03:49:38.469Z,993.63
2016-05-12T03:50:38.457Z,993.63
2016-05-12T03:51:38.460Z,993.64
2016-05-12T03:52:38.838Z,993.65
2016-05-12T03:53:38.418Z,993.62
2016-05-12T03:54:38.546Z,993.56
2016-05-12T03:55:38.360Z,993.55
2016-05-12T03:56:38.363Z,993.59
2016-05-12T03:57:38.320Z,993.6
2016-05-12T03:58:38.432Z,993.61
2016-05-12T03:59:38.276Z,993.63
2016-05-12T04:00:38.263Z,993.64
2016-05-12T04:01:38.249Z,993.64
2016-05-12T04:02:38.206Z,993.66
2016-05-12T04:03:38.507Z,993.62
2016-05-12T04:04:38.211Z,993.66
2016-05-12T04:05:38.198Z,993.63
2016-05-12T04:06:38.435Z,993.65
2016-05-12T04:07:38.109Z,993.63
2016-05-12T04:08:38.159Z,993.63
2016-05-12T04:09:38.067Z,993.62
2016-05-12T04:10:38.070Z,993.62
2016-05-12T04:11:38.105Z,993.6
2016-05-12T04:12:38.029Z,993.59
2016-05-12T04:13:38.000Z,993.61
2016-05-12T04:14:37.956Z,993.63
2016-05-12T04:15:37.958Z,993.59
2016-05-12T04:16:37.930Z,993.55
2016-05-12T04:17:37.917Z,993.6
2016-05-12T04:18:37.888Z,993.56
2016-05-12T04:19:37.861Z,993.56
2016-05-12T04:20:37.863Z,993.56
2016-05-12T04:21:37.835Z,993.56
2016-05-12T04:22:37.805Z,993.52
2016-05-12T04:23:37.793Z,993.52
2016-05-12T04:24:37.764Z,993.55
2016-05-12T04:25:37.751Z,993.57
2016-05-12T04:26:37.738Z,993.57
2016-05-12T04:27:37.726Z,993.52
2016-05-12T04:28:37.743Z,993.52
2016-05-12T04:29:37.668Z,993.54
2016-05-12T04:30:37.656Z,993.53
2016-05-12T04:31:37.627Z,993.52
2016-05-12T04:32:37.614Z,993.54
2016-05-12T04:33:37.585Z,993.51
2016-05-12T04:34:37.573Z,993.5
2016-05-12T04:35:37.544Z,993.48
2016-05-12T04:36:37.515Z,993.49
2016-05-12T04:37:37.486Z,993.48
2016-05-12T04:38:37.474Z,993.44
2016-05-12T04:39:37.462Z,993.44
2016-05-12T04:40:37.448Z,993.45
2016-05-12T04:41:37.435Z,993.42
2016-05-12T04:42:37.391Z,993.41
2016-05-12T04:43:37.377Z,993.42
2016-05-12T04:44:37.365Z,993.43
2016-05-12T04:45:37.337Z,993.4
2016-05-12T04:46:37.620Z,993.42
2016-05-12T04:47:37.311Z,993.43
2016-05-12T04:48:37.297Z,993.44
2016-05-12T04:49:37.253Z,993.44
2016-05-12T04:50:37.224Z,993.47
2016-05-12T04:51:37.213Z,993.45
2016-05-12T04:52:37.215Z,993.44
2016-05-12T04:53:37.186Z,993.48
2016-05-12T04:54:37.157Z,993.48
2016-05-12T04:55:37.316Z,993.49
2016-05-12T04:56:37.116Z,993.45
2016-05-12T04:57:37.104Z,993.45
2016-05-12T04:58:37.074Z,993.48
2016-05-12T04:59:37.046Z,993.46
2016-05-12T05:00:37.049Z,993.46
2016-05-12T05:01:37.004Z,993.48
2016-05-12T05:02:37.007Z,993.46
2016-05-12T05:03:36.962Z,993.44
2016-05-12T05:04:36.935Z,993.41
2016-05-12T05:05:36.921Z,993.43
2016-05-12T05:06:36.893Z,993.45
2016-05-12T05:07:36.881Z,993.48
2016-05-12T05:08:36.867Z,993.44
2016-05-12T05:09:36.854Z,993.45
2016-05-12T05:10:36.825Z,993.47
2016-05-12T05:11:36.797Z,993.47
2016-05-12T05:12:36.800Z,993.46
2016-05-12T05:13:36.772Z,993.44
2016-05-12T05:14:36.742Z,993.43
2016-05-12T05:15:36.714Z,993.42
2016-05-12T05:16:36.700Z,993.45
2016-05-12T05:17:36.750Z,993.44
2016-05-12T05:18:36.675Z,993.45
2016-05-12T05:19:37.006Z,993.46
2016-05-12T05:20:36.618Z,993.42
2016-05-12T05:21:36.589Z,993.46
2016-05-12T05:22:36.577Z,993.5
2016-05-12T05:23:36.563Z,993.51
2016-05-12T05:24:36.520Z,993.48
2016-05-12T05:25:36.522Z,993.51
2016-05-12T05:26:36.666Z,993.47
2016-05-12T05:27:36.465Z,993.47
2016-05-12T05:28:36.437Z,993.49
2016-05-12T05:29:36.439Z,993.47
2016-05-12T05:30:36.504Z,993.47
2016-05-12T05:31:36.382Z,993.47
2016-05-12T05:32:36.369Z,993.47
2016-05-12T05:33:36.340Z,993.46
2016-05-12T05:34:36.328Z,993.47
2016-05-12T05:35:36.315Z,993.47
2016-05-12T05:36:36.301Z,993.43
2016-05-12T05:37:36.289Z,993.38
2016-05-12T05:38:36.259Z,993.41
2016-05-12T05:39:36.232Z,993.45
2016-05-12T05:40:36.204Z,993.4
2016-05-12T05:41:36.190Z,993.38
2016-05-12T05:42:36.162Z,993.45
2016-05-12T05:43:36.148Z,993.39
2016-05-12T05:44:36.135Z,993.4
2016-05-12T05:45:36.108Z,993.39
2016-05-12T05:46:36.094Z,993.39
2016-05-12T05:47:36.081Z,993.44
2016-05-12T05:48:36.037Z,993.45
2016-05-12T05:49:36.039Z,993.42
2016-05-12T05:50:36.011Z,993.44
2016-05-12T05:51:36.077Z,993.45
2016-05-12T05:52:35.954Z,993.42
2016-05-12T05:53:35.957Z,993.47
2016-05-12T05:54:35.927Z,993.43
2016-05-12T05:55:36.055Z,993.47
2016-05-12T05:56:35.888Z,993.49
2016-05-12T05:57:35.858Z,993.49
2016-05-12T05:58:35.845Z,993.45
2016-05-12T05:59:35.816Z,993.43
2016-05-12T06:00:35.819Z,993.44
2016-05-12T06:01:36.135Z,993.47
2016-05-12T06:02:35.918Z,993.42
2016-05-12T06:03:35.749Z,993.45
2016-05-12T06:04:35.721Z,993.41
2016-05-12T06:05:35.724Z,993.45
2016-05-12T06:06:35.695Z,993.4
2016-05-12T06:07:35.651Z,993.45
2016-05-12T06:08:35.637Z,993.42
2016-05-12T06:09:35.609Z,993.43
2016-05-12T06:10:35.658Z,993.45
2016-05-12T06:11:35.584Z,993.47
2016-05-12T06:12:35.555Z,993.5
2016-05-12T06:13:35.542Z,993.41
2016-05-12T06:14:35.919Z,993.5
2016-05-12T06:15:35.500Z,993.48
2016-05-12T06:16:35.487Z,993.46
2016-05-12T06:17:35.475Z,993.47
2016-05-12T06:18:35.446Z,993.49
2016-05-12T06:19:35.417Z,993.51
2016-05-12T06:20:35.405Z,993.5
2016-05-12T06:21:35.360Z,993.49
2016-05-12T06:22:35.347Z,993.49
2016-05-12T06:23:35.335Z,993.53
2016-05-12T06:24:35.321Z,993.49
2016-05-12T06:25:35.308Z,993.47
2016-05-12T06:26:35.264Z,993.45
2016-05-12T06:27:35.252Z,993.43
2016-05-12T06:28:35.254Z,993.41
2016-05-12T06:29:35.226Z,993.42
2016-05-12T06:30:35.182Z,993.42
2016-05-12T06:31:35.184Z,993.42
2016-05-12T06:32:35.140Z,993.36
2016-05-12T06:33:35.142Z,993.38
2016-05-12T06:34:35.115Z,993.38
2016-05-12T06:35:35.101Z,993.35
2016-05-12T06:36:35.072Z,993.37
2016-05-12T06:37:35.060Z,993.35
2016-05-12T06:38:35.078Z,993.39
2016-05-12T06:39:35.003Z,993.33
2016-05-12T06:40:35.006Z,993.32
2016-05-12T06:41:34.977Z,993.29
2016-05-12T06:42:35.370Z,993.28
2016-05-12T06:43:34.935Z,993.26
2016-05-12T06:44:34.937Z,993.34
2016-05-12T06:45:34.894Z,993.3
2016-05-12T06:46:34.865Z,993.3
2016-05-12T06:47:34.852Z,993.24
2016-05-12T06:48:34.839Z,993.28
2016-05-12T06:49:34.810Z,993.28
2016-05-12T06:50:34.856Z,993.27
2016-05-12T06:51:34.855Z,993.27
2016-05-12T06:52:35.400Z,993.24
2016-05-12T06:53:35.055Z,993.25
2016-05-12T06:54:35.023Z,993.25
2016-05-12T06:55:34.932Z,993.26
2016-05-12T06:56:35.029Z,993.18
2016-05-12T06:57:34.937Z,993.22
2016-05-12T06:58:34.923Z,993.16
2016-05-12T06:59:34.926Z,993.22
2016-05-12T07:00:34.918Z,993.17
2016-05-12T07:01:34.911Z,993.17
2016-05-12T07:02:34.872Z,993.2
2016-05-12T07:03:34.865Z,993.21
2016-05-12T07:04:34.841Z,993.22
2016-05-12T07:05:34.830Z,993.25
2016-05-12T07:06:34.819Z,993.18
2016-05-12T07:07:34.778Z,993.17
2016-05-12T07:08:34.844Z,993.15
2016-05-12T07:09:34.755Z,993.15
2016-05-12T07:10:34.744Z,993.12
2016-05-12T07:11:34.731Z,993.1
2016-05-12T07:12:34.703Z,993.13
2016-05-12T07:13:34.706Z,993.15
2016-05-12T07:14:34.929Z,993.15
2016-05-12T07:15:34.635Z,993.18
2016-05-12T07:16:34.669Z,993.14
2016-05-12T07:17:34.609Z,993.15
2016-05-12T07:18:34.628Z,993.14
2016-05-12T07:19:34.975Z,993.08
2016-05-12T07:20:34.603Z,993.1
2016-05-12T07:21:34.527Z,993.21
2016-05-12T07:22:34.795Z,993.12
2016-05-12T07:23:34.486Z,993.21
2016-05-12T07:24:34.723Z,993.12
2016-05-12T07:25:34.461Z,993.07
2016-05-12T07:26:34.416Z,993.16
2016-05-12T07:27:34.386Z,993.08
2016-05-12T07:28:34.734Z,993.09
2016-05-12T07:29:34.377Z,993.1
2016-05-12T07:30:34.364Z,993.17
2016-05-12T07:31:34.336Z,993.14
2016-05-12T07:32:34.322Z,993.14
2016-05-12T07:33:35.075Z,993.16
2016-05-12T07:34:34.422Z,993.09
2016-05-12T07:35:34.346Z,993.1
2016-05-12T07:36:34.411Z,993.09
2016-05-12T07:37:34.211Z,993.08
2016-05-12T07:38:34.198Z,993.09
2016-05-12T07:39:34.169Z,993.11
2016-05-12T07:40:34.329Z,993.12
2016-05-12T07:41:34.144Z,993.06
2016-05-12T07:42:34.131Z,993.07
2016-05-12T07:43:34.102Z,993.07
2016-05-12T07:44:34.089Z,993.08
2016-05-12T07:45:35.108Z,993.05
2016-05-12T07:46:34.048Z,993.04
2016-05-12T07:47:34.035Z,993
2016-05-12T07:48:34.084Z,993.01
2016-05-12T07:49:33.993Z,993
2016-05-12T07:50:33.949Z,993.08
2016-05-12T07:51:34.014Z,993.04
2016-05-12T07:52:34.518Z,992.96
2016-05-12T07:53:33.973Z,992.97
2016-05-12T07:54:33.882Z,992.96
2016-05-12T07:55:33.884Z,992.99
2016-05-12T07:56:34.465Z,992.95
2016-05-12T07:57:34.062Z,992.98
2016-05-12T07:58:33.814Z,992.93
2016-05-12T07:59:33.786Z,992.92
2016-05-12T08:00:33.772Z,992.92
2016-05-12T08:01:34.025Z,992.97
2016-05-12T08:02:33.731Z,992.95
2016-05-12T08:03:33.797Z,992.92
2016-05-12T08:04:33.674Z,992.9
2016-05-12T08:05:33.677Z,992.88
2016-05-12T08:06:33.649Z,992.9
2016-05-12T08:07:33.652Z,992.83
2016-05-12T08:08:33.622Z,992.85
2016-05-12T08:09:33.578Z,992.87
2016-05-12T08:10:33.613Z,992.82
2016-05-12T08:11:33.928Z,992.85
2016-05-12T08:12:33.540Z,992.81
2016-05-12T08:13:33.558Z,992.81
2016-05-12T08:14:33.498Z,992.77
2016-05-12T08:15:33.485Z,992.81
2016-05-12T08:16:33.894Z,992.76
2016-05-12T08:17:33.443Z,992.83
2016-05-12T08:18:33.447Z,992.76
2016-05-12T08:19:33.418Z,992.81
2016-05-12T08:20:33.389Z,992.77
2016-05-12T08:21:33.690Z,992.82
2016-05-12T08:22:33.364Z,992.77
2016-05-12T08:23:33.334Z,992.73
2016-05-12T08:24:33.337Z,992.66
2016-05-12T08:25:33.309Z,992.69
2016-05-12T08:26:33.280Z,992.7
2016-05-12T08:27:33.345Z,992.66
2016-05-12T08:28:33.239Z,992.73
2016-05-12T08:29:33.366Z,992.69
2016-05-12T08:30:33.541Z,992.66
2016-05-12T08:31:33.200Z,992.64
2016-05-12T08:32:33.859Z,992.63
2016-05-12T08:33:33.222Z,992.64
2016-05-12T08:34:33.162Z,992.62
2016-05-12T08:35:33.117Z,992.57
2016-05-12T08:36:33.089Z,992.59
2016-05-12T08:37:33.107Z,992.58
2016-05-12T08:38:33.047Z,992.57
2016-05-12T08:39:33.550Z,992.52
2016-05-12T08:40:33.037Z,992.52
2016-05-12T08:41:32.993Z,992.54
2016-05-12T08:42:33.010Z,992.53
2016-05-12T08:43:33.170Z,992.54
2016-05-12T08:44:33.032Z,992.49
2016-05-12T08:45:32.926Z,992.48
2016-05-12T08:46:32.896Z,992.46
2016-05-12T08:47:32.915Z,992.47
2016-05-12T08:48:32.902Z,992.45
2016-05-12T08:49:32.857Z,992.39
2016-05-12T08:50:32.829Z,992.34
2016-05-12T08:51:32.832Z,992.44
2016-05-12T08:52:32.834Z,992.52
2016-05-12T08:53:33.197Z,992.34
2016-05-12T08:54:32.746Z,992.4
2016-05-12T08:55:32.748Z,992.47
2016-05-12T08:56:32.721Z,992.38
2016-05-12T08:57:32.692Z,992.37
2016-05-12T08:58:33.600Z,992.39
2016-05-12T08:59:32.667Z,992.36
2016-05-12T09:00:32.669Z,992.31
2016-05-12T09:01:32.624Z,992.33
2016-05-12T09:02:32.628Z,992.37
2016-05-12T09:03:32.599Z,992.21
2016-05-12T09:04:32.586Z,992.36
2016-05-12T09:05:32.557Z,992.36
2016-05-12T09:06:32.544Z,992.31
2016-05-12T09:07:32.516Z,992.32
2016-05-12T09:08:32.502Z,992.33
2016-05-12T09:09:33.365Z,992.34
2016-05-12T09:10:32.461Z,992.37
2016-05-12T09:11:32.480Z,992.39
2016-05-12T09:12:32.451Z,992.39
2016-05-12T09:13:32.438Z,992.33
2016-05-12T09:14:32.409Z,992.38
2016-05-12T09:15:32.475Z,992.33
2016-05-12T09:16:32.368Z,992.43
2016-05-12T09:17:32.340Z,992.38
2016-05-12T09:18:32.327Z,992.4
2016-05-12T09:19:32.313Z,992.33
2016-05-12T09:20:32.270Z,992.37
2016-05-12T09:21:32.273Z,992.36
2016-05-12T09:22:32.243Z,992.37
2016-05-12T09:23:32.231Z,992.34
2016-05-12T09:24:32.405Z,992.33
2016-05-12T09:25:32.329Z,992.38
2016-05-12T09:26:32.207Z,992.31
2016-05-12T09:27:32.163Z,992.29
2016-05-12T09:28:32.150Z,992.22
2016-05-12T09:29:32.887Z,992.32
2016-05-12T09:30:32.125Z,992.35
2016-05-12T09:31:32.127Z,992.27
2016-05-12T09:32:32.067Z,992.28
2016-05-12T09:33:32.070Z,992.26
2016-05-12T09:34:32.057Z,992.25
2016-05-12T09:35:32.028Z,992.24
2016-05-12T09:36:32.016Z,992.21
2016-05-12T09:37:32.003Z,992.21
2016-05-12T09:38:32.036Z,992.22
2016-05-12T09:39:33.055Z,992.21
2016-05-12T09:40:31.949Z,992.2
2016-05-12T09:41:31.904Z,992.19
2016-05-12T09:42:31.907Z,992.21
2016-05-12T09:43:31.940Z,992.24
2016-05-12T09:44:31.880Z,992.17
2016-05-12T09:45:31.837Z,992.15
2016-05-12T09:46:32.307Z,992.17
2016-05-12T09:47:31.796Z,992.14
2016-05-12T09:48:31.798Z,992.18
2016-05-12T09:50:31.772Z,992.13
2016-05-12T09:51:31.915Z,992.2
2016-05-12T09:52:34.371Z,992.18
2016-05-12T09:53:31.967Z,992.14
2016-05-12T09:54:31.939Z,992.23
2016-05-12T09:56:32.070Z,992.18
2016-05-12T09:57:31.619Z,992.13
2016-05-12T09:58:32.028Z,992.28
2016-05-12T09:59:31.905Z,992.11
2016-05-12T10:00:31.673Z,992.2
2016-05-12T10:01:33.692Z,992.18
2016-05-12T10:02:33.397Z,992.11
2016-05-12T10:03:32.042Z,992.11
2016-05-12T10:04:32.014Z,992.16
2016-05-12T10:05:33.703Z,992.11
2016-05-12T10:06:31.456Z,992.14
2016-05-12T10:07:31.474Z,992.15
2016-05-12T10:08:32.399Z,992.13
2016-05-12T10:10:31.716Z,992.1
2016-05-12T10:11:35.563Z,992.14
2016-05-12T10:12:31.893Z,992.05
2016-05-12T10:13:31.458Z,992.1
2016-05-12T10:14:31.461Z,992.23
2016-05-12T10:15:31.401Z,992.05
2016-05-12T10:17:31.438Z,992.07
2016-05-12T10:18:31.738Z,992.09
2016-05-12T10:19:33.554Z,992.17
2016-05-12T10:20:31.509Z,992.04
2016-05-12T10:21:31.699Z,992.04
2016-05-12T10:22:32.061Z,992.05
2016-05-12T10:23:31.783Z,992.06
2016-05-12T10:25:31.163Z,992.04
2016-05-12T10:27:32.793Z,992.06
2016-05-12T10:29:33.923Z,992.02
2016-05-12T10:30:31.348Z,992
2016-05-12T10:31:31.522Z,992.04
2016-05-12T10:32:31.775Z,991.97
2016-05-12T10:33:32.342Z,991.99
2016-05-12T10:35:33.346Z,991.97
2016-05-12T10:36:32.114Z,991.85
2016-05-12T10:37:32.008Z,991.96
2016-05-12T10:38:30.948Z,992.04
2016-05-12T10:40:31.203Z,991.93
2016-05-12T10:41:30.971Z,992.03
2016-05-12T10:42:30.833Z,991.97
2016-05-12T10:43:30.836Z,991.98
2016-05-12T10:44:30.792Z,991.91
2016-05-12T10:45:31.373Z,991.93
2016-05-12T10:46:30.782Z,991.91
2016-05-12T10:47:30.738Z,991.88
2016-05-12T10:48:30.835Z,991.92
2016-05-12T10:49:30.743Z,991.91
2016-05-12T10:50:30.964Z,992.09
2016-05-12T10:51:30.686Z,991.88
2016-05-12T10:52:30.658Z,991.92
2016-05-12T10:53:30.848Z,991.81
2016-05-12T10:54:30.648Z,991.88
2016-05-12T10:55:30.603Z,991.86
2016-05-12T10:56:30.606Z,991.87
2016-05-12T10:57:30.562Z,991.85
2016-05-12T10:58:30.596Z,991.89
2016-05-12T10:59:30.567Z,991.82
2016-05-12T11:00:30.538Z,991.8
2016-05-12T11:01:30.650Z,991.88
2016-05-12T11:03:30.467Z,991.86
2016-05-12T11:04:30.939Z,991.85
2016-05-12T11:05:30.614Z,991.8
2016-05-12T11:06:31.695Z,991.86
2016-05-12T11:07:30.479Z,991.87
2016-05-12T11:08:30.717Z,991.82
2016-05-12T11:09:30.358Z,991.83
2016-05-12T11:10:30.456Z,991.83
2016-05-12T11:11:32.912Z,991.7
2016-05-12T11:12:33.117Z,991.75
2016-05-12T11:14:30.607Z,991.77
2016-05-12T11:15:31.750Z,991.8
2016-05-12T11:16:34.097Z,991.7
2016-05-12T11:18:30.493Z,991.7
2016-05-12T11:19:30.480Z,991.73
2016-05-12T11:20:30.342Z,991.74
2016-05-12T11:21:30.173Z,991.79
2016-05-12T11:22:30.144Z,991.72
2016-05-12T11:23:30.115Z,991.76
2016-05-12T11:24:30.587Z,991.72
2016-05-12T11:25:30.090Z,991.87
2016-05-12T11:26:30.202Z,991.76
2016-05-12T11:27:30.189Z,991.89
2016-05-12T11:28:30.067Z,991.73
2016-05-12T11:29:30.023Z,991.71
2016-05-12T11:30:30.104Z,991.78
2016-05-12T11:31:30.122Z,991.66
2016-05-12T11:32:30.092Z,991.68
2016-05-12T11:33:31.190Z,991.73
2016-05-12T11:34:29.958Z,991.74
2016-05-12T11:35:29.928Z,991.71
2016-05-12T11:36:30.651Z,991.69
2016-05-12T11:37:30.684Z,991.67
2016-05-12T11:38:29.875Z,991.6
2016-05-12T11:39:29.877Z,991.62
2016-05-12T11:40:29.975Z,991.63
2016-05-12T11:41:29.820Z,991.65
2016-05-12T11:42:29.854Z,991.65
2016-05-12T11:43:29.795Z,991.63
2016-05-12T11:44:29.766Z,991.62
2016-05-12T11:45:29.769Z,991.66
2016-05-12T11:46:29.756Z,991.57
2016-05-12T11:47:29.758Z,991.63
2016-05-12T11:48:31.058Z,991.49
2016-05-12T11:49:29.716Z,991.55
2016-05-12T11:50:29.783Z,991.52
2016-05-12T11:51:29.660Z,991.5
2016-05-12T11:52:29.912Z,991.55
2016-05-12T11:53:29.962Z,991.69
2016-05-12T11:54:29.605Z,991.63
2016-05-12T11:55:29.671Z,991.5
2016-05-12T11:56:29.595Z,991.52
2016-05-12T11:57:29.567Z,991.57
2016-05-12T11:58:29.554Z,991.44
2016-05-12T11:59:30.947Z,991.51
2016-05-12T12:00:29.528Z,991.5
2016-05-12T12:01:29.499Z,991.44
2016-05-12T12:02:29.471Z,991.51
2016-05-12T12:03:29.459Z,991.39
2016-05-12T12:04:30.351Z,991.46
2016-05-12T12:05:29.431Z,991.46
2016-05-12T12:06:29.419Z,991.44
2016-05-12T12:07:29.812Z,991.57
2016-05-12T12:08:29.877Z,991.44
2016-05-12T12:09:29.412Z,991.46
2016-05-12T12:10:29.336Z,991.46
2016-05-12T12:11:29.338Z,991.4
2016-05-12T12:12:29.325Z,991.47
2016-05-12T12:13:29.297Z,991.5
2016-05-12T12:14:29.283Z,991.52
2016-05-12T12:15:29.271Z,991.46
2016-05-12T12:16:30.446Z,991.55
2016-05-12T12:17:29.230Z,991.56
2016-05-12T12:18:29.202Z,991.45
2016-05-12T12:19:29.251Z,991.59
2016-05-12T12:20:29.222Z,991.51
2016-05-12T12:21:29.177Z,991.51
2016-05-12T12:22:29.275Z,991.52
2016-05-12T12:23:29.230Z,991.47
2016-05-12T12:24:29.140Z,991.53
2016-05-12T12:25:29.204Z,991.46
2016-05-12T12:26:29.504Z,991.48
2016-05-12T12:27:29.085Z,991.47
2016-05-12T12:28:29.071Z,991.41
2016-05-12T12:29:29.121Z,991.37
2016-05-12T12:30:29.608Z,991.51
2016-05-12T12:31:29.048Z,991.39
2016-05-12T12:32:29.005Z,991.46
2016-05-12T12:33:28.992Z,991.48
2016-05-12T12:34:29.134Z,991.51
2016-05-12T12:35:28.965Z,991.41
2016-05-12T12:36:29.093Z,991.36
2016-05-12T12:37:29.003Z,991.58
2016-05-12T12:38:28.943Z,991.36
2016-05-12T12:39:28.883Z,991.35
2016-05-12T12:40:28.917Z,991.44
2016-05-12T12:41:28.857Z,991.39
2016-05-12T12:42:28.875Z,991.32